createdAt,value
2022-10-23T00:01:54.537Z,4.53
2022-10-23T00:04:33.106Z,3.88
2022-10-23T00:07:04.709Z,4.82
2022-10-23T00:09:34.895Z,4.93
2022-10-23T00:12:05.080Z,5.00
2022-10-23T00:14:36.406Z,4.35
2022-10-23T00:17:24.095Z,3.55
2022-10-23T00:19:54.603Z,2.75
2022-10-23T00:22:35.311Z,2.80
2022-10-23T00:25:05.547Z,3.28
2022-10-23T00:27:46.418Z,2.63
2022-10-23T00:30:26.680Z,2.92
2022-10-23T00:32:55.667Z,2.80
2022-10-23T00:35:40.538Z,2.72
2022-10-23T00:38:08.327Z,3.53
2022-10-23T00:43:27.983Z,3.10
2022-10-23T00:46:13.768Z,3.08
2022-10-23T00:48:44.591Z,3.55
2022-10-23T00:51:18.260Z,3.80
2022-10-23T00:53:48.030Z,3.45
2022-10-23T00:56:25.380Z,3.55
2022-10-23T00:58:53.152Z,3.58
2022-10-23T01:01:29.231Z,2.63
2022-10-23T01:04:00.970Z,2.78
2022-10-23T01:06:54.619Z,2.33
2022-10-23T01:09:31.507Z,2.90
2022-10-23T01:12:25.525Z,3.03
2022-10-23T01:15:04.214Z,2.92
2022-10-23T01:17:39.687Z,3.60
2022-10-23T01:20:29.202Z,3.47
2022-10-23T01:23:25.710Z,3.70
2022-10-23T01:26:21.464Z,3.80
2022-10-23T01:29:19.137Z,3.20
2022-10-23T01:32:20.696Z,3.95
2022-10-23T01:35:00.106Z,3.78
2022-10-23T01:38:07.285Z,3.30
2022-10-23T01:40:42.621Z,3.20
2022-10-23T01:43:13.507Z,3.50
2022-10-23T01:45:44.819Z,3.10
2022-10-23T01:51:03.464Z,3.00
2022-10-23T01:53:33.458Z,3.10
2022-10-23T01:56:05.991Z,2.30
2022-10-23T01:58:39.524Z,2.13
2022-10-23T02:01:13.040Z,1.88
2022-10-23T02:04:09.426Z,1.77
2022-10-23T02:06:48.585Z,1.83
2022-10-23T02:12:08.695Z,1.50
2022-10-23T02:14:53.136Z,1.63
2022-10-23T02:18:21.798Z,1.88
2022-10-23T02:20:51.113Z,1.35
2022-10-23T02:23:29.911Z,1.00
2022-10-23T02:26:04.037Z,2.28
2022-10-23T02:31:14.370Z,3.47
2022-10-23T02:33:55.904Z,3.60
2022-10-23T02:36:31.890Z,4.00
2022-10-23T02:39:10.651Z,4.03
2022-10-23T02:44:53.056Z,3.00
2022-10-23T02:48:01.149Z,3.70
2022-10-23T02:50:38.849Z,4.40
2022-10-23T02:53:16.760Z,4.18
2022-10-23T02:55:49.521Z,3.92
2022-10-23T02:58:29.945Z,4.93
2022-10-23T03:01:09.967Z,4.55
2022-10-23T03:03:46.384Z,5.20
2022-10-23T03:11:46.324Z,3.92
2022-10-23T03:14:17.322Z,4.72
2022-10-23T03:19:31.673Z,4.60
2022-10-23T03:22:19.827Z,4.70
2022-10-23T03:24:49.785Z,4.22
2022-10-23T03:27:30.919Z,4.30
2022-10-23T03:30:05.229Z,3.85
2022-10-23T03:32:38.727Z,4.32
2022-10-23T03:35:14.996Z,4.18
2022-10-23T03:37:47.016Z,4.45
2022-10-23T03:40:25.651Z,5.28
2022-10-23T03:42:52.749Z,4.97
2022-10-23T03:45:19.760Z,4.97
2022-10-23T03:47:55.086Z,4.90
2022-10-23T03:50:23.943Z,5.22
2022-10-23T03:52:53.891Z,5.10
2022-10-23T03:58:07.158Z,4.57
2022-10-23T04:01:01.870Z,5.03
2022-10-23T04:03:39.374Z,4.25
2022-10-23T04:12:01.884Z,4.25
2022-10-23T04:14:59.817Z,5.07
2022-10-23T04:17:35.247Z,5.35
2022-10-23T04:20:05.688Z,4.93
2022-10-23T04:22:38.256Z,5.20
2022-10-23T04:27:59.580Z,4.80
2022-10-23T04:30:29.193Z,3.92
2022-10-23T04:32:56.279Z,4.38
2022-10-23T04:35:31.014Z,4.13
2022-10-23T04:38:04.064Z,4.78
2022-10-23T04:40:42.695Z,4.55
2022-10-23T04:46:17.270Z,6.25
2022-10-23T04:48:55.838Z,6.53
2022-10-23T04:51:45.581Z,6.35
2022-10-23T04:57:05.640Z,5.90
2022-10-23T04:59:40.120Z,6.85
2022-10-23T05:02:07.615Z,6.63
2022-10-23T05:04:34.611Z,6.78
2022-10-23T05:07:08.400Z,6.75
2022-10-23T05:09:35.947Z,6.85
2022-10-23T05:12:04.901Z,6.25
2022-10-23T05:14:36.718Z,6.20
2022-10-23T05:17:21.456Z,6.95
2022-10-23T05:22:47.117Z,5.88
2022-10-23T05:25:14.876Z,5.72
2022-10-23T05:28:01.476Z,6.68
2022-10-23T05:33:37.952Z,5.78
2022-10-23T05:36:09.066Z,5.63
2022-10-23T05:38:36.483Z,6.25
2022-10-23T05:41:06.302Z,6.68
2022-10-23T05:43:34.351Z,6.57
2022-10-23T05:46:08.427Z,6.30
2022-10-23T05:48:40.459Z,5.97
2022-10-23T05:51:11.645Z,6.03
2022-10-23T05:53:46.864Z,6.00
2022-10-23T05:56:16.753Z,5.85
2022-10-23T05:58:48.644Z,5.50
2022-10-23T06:01:25.615Z,6.00
2022-10-23T06:04:02.859Z,6.35
2022-10-23T06:06:38.045Z,5.90
2022-10-23T06:09:10.478Z,6.43
2022-10-23T06:11:47.442Z,6.47
2022-10-23T06:14:14.823Z,6.25
2022-10-23T06:16:41.855Z,5.57
2022-10-23T06:19:11.430Z,5.93
2022-10-23T06:21:43.448Z,6.13
2022-10-23T06:24:19.321Z,5.90
2022-10-23T06:26:57.795Z,6.13
2022-10-23T06:29:38.196Z,5.68
2022-10-23T06:32:12.575Z,5.53
2022-10-23T06:34:39.578Z,5.75
2022-10-23T06:37:06.808Z,5.85
2022-10-23T06:39:35.892Z,5.78
2022-10-23T06:42:08.996Z,6.30
2022-10-23T06:44:43.621Z,5.75
2022-10-23T06:47:14.753Z,5.65
2022-10-23T06:49:44.131Z,5.78
2022-10-23T06:52:18.507Z,5.53
2022-10-23T06:54:58.995Z,5.80
2022-10-23T06:57:25.978Z,5.05
2022-10-23T06:59:53.091Z,5.85
2022-10-23T07:02:27.252Z,5.55
2022-10-23T07:04:54.252Z,5.57
2022-10-23T07:07:32.704Z,4.75
2022-10-23T07:09:59.715Z,5.03
2022-10-23T07:12:47.781Z,5.57
2022-10-23T07:15:15.125Z,5.40
2022-10-23T07:17:42.096Z,5.05
2022-10-23T07:20:17.250Z,6.15
2022-10-23T07:22:45.021Z,5.50
2022-10-23T07:25:12.230Z,5.53
2022-10-23T07:27:39.359Z,5.55
2022-10-23T07:30:06.671Z,5.38
2022-10-23T07:33:01.419Z,5.72
2022-10-23T07:35:37.141Z,5.32
2022-10-23T07:38:08.095Z,4.80
2022-10-23T07:40:37.920Z,5.47
2022-10-23T07:43:05.019Z,5.43
2022-10-23T07:45:32.044Z,5.60
2022-10-23T07:47:59.035Z,5.30
2022-10-23T07:50:31.880Z,5.45
2022-10-23T07:53:09.235Z,4.80
2022-10-23T07:55:44.136Z,5.63
2022-10-23T07:58:11.182Z,5.35
2022-10-23T08:00:40.816Z,5.55
2022-10-23T08:03:12.640Z,5.00
2022-10-23T08:05:45.228Z,5.40
2022-10-23T08:08:13.951Z,5.45
2022-10-23T08:10:41.638Z,4.63
2022-10-23T08:13:10.332Z,5.40
2022-10-23T08:15:42.006Z,5.13
2022-10-23T08:18:12.045Z,5.03
2022-10-23T08:20:47.461Z,4.90
2022-10-23T08:23:22.650Z,4.32
2022-10-23T08:25:49.673Z,4.15
2022-10-23T08:28:21.696Z,5.00
2022-10-23T08:30:54.735Z,4.63
2022-10-23T08:33:33.918Z,4.88
2022-10-23T08:36:00.994Z,5.25
2022-10-23T08:38:48.534Z,4.20
2022-10-23T08:41:38.693Z,4.40
2022-10-23T08:44:10.370Z,4.20
2022-10-23T08:46:48.690Z,4.40
2022-10-23T08:49:28.244Z,4.65
2022-10-23T08:52:16.199Z,4.25
2022-10-23T08:55:09.459Z,4.55
2022-10-23T09:00:42.016Z,4.40
2022-10-23T09:03:12.880Z,4.38
2022-10-23T09:06:18.380Z,4.28
2022-10-23T09:08:58.881Z,4.18
2022-10-23T09:11:48.059Z,3.30
2022-10-23T09:14:15.254Z,3.92
2022-10-23T09:16:52.902Z,3.63
2022-10-23T09:19:23.238Z,4.07
2022-10-23T09:21:50.753Z,3.90
2022-10-23T09:29:38.421Z,4.03
2022-10-23T09:32:06.484Z,3.45
2022-10-23T09:34:39.228Z,3.42
2022-10-23T09:37:43.718Z,3.55
2022-10-23T09:40:18.212Z,3.63
2022-10-23T09:43:21.962Z,3.78
2022-10-23T09:46:00.053Z,3.60
2022-10-23T09:48:29.676Z,3.30
2022-10-23T09:50:58.392Z,3.55
2022-10-23T09:53:31.675Z,3.38
2022-10-23T09:58:43.849Z,3.25
2022-10-23T10:01:23.924Z,3.25
2022-10-23T10:04:01.888Z,3.38
2022-10-23T10:09:15.144Z,3.42
2022-10-23T10:12:03.769Z,3.15
2022-10-23T10:14:44.713Z,3.05
2022-10-23T10:17:31.328Z,3.40
2022-10-23T10:20:07.989Z,3.30
2022-10-23T10:22:55.242Z,2.88
2022-10-23T10:28:10.859Z,3.10
2022-10-23T10:30:59.595Z,2.83
2022-10-23T10:33:49.539Z,3.00
2022-10-23T10:36:31.746Z,3.90
2022-10-23T10:39:04.630Z,3.10
2022-10-23T10:44:38.265Z,3.20
2022-10-23T10:47:18.496Z,3.20
2022-10-23T10:50:08.749Z,2.90
2022-10-23T10:52:57.679Z,2.97
2022-10-23T10:55:36.367Z,3.00
2022-10-23T10:58:13.730Z,2.67
2022-10-23T11:00:41.116Z,2.90
2022-10-23T11:03:25.684Z,2.70
2022-10-23T11:06:08.069Z,2.50
2022-10-23T11:11:36.235Z,2.50
2022-10-23T11:14:06.400Z,2.53
2022-10-23T11:16:36.092Z,2.72
2022-10-23T11:22:03.191Z,2.70
2022-10-23T11:24:48.355Z,2.67
2022-10-23T11:27:23.268Z,2.80
2022-10-23T11:32:43.390Z,2.45
2022-10-23T11:35:30.698Z,2.30
2022-10-23T11:38:07.031Z,3.00
2022-10-23T11:40:34.114Z,2.35
2022-10-23T11:43:11.349Z,1.92
2022-10-23T11:45:42.952Z,2.35
2022-10-23T11:48:50.252Z,2.10
2022-10-23T11:51:31.243Z,2.10
2022-10-23T11:54:08.215Z,2.33
2022-10-23T11:56:35.379Z,2.30
2022-10-23T11:59:20.556Z,2.25
2022-10-23T12:02:12.807Z,2.17
2022-10-23T12:04:57.556Z,2.25
2022-10-23T12:10:25.870Z,1.92
2022-10-23T12:13:25.659Z,2.20
2022-10-23T12:15:58.500Z,2.50
2022-10-23T12:18:28.991Z,2.20
2022-10-23T12:21:00.104Z,1.92
2022-10-23T12:26:54.227Z,2.17
2022-10-23T12:30:11.628Z,2.20
2022-10-23T12:32:59.800Z,2.15
2022-10-23T12:36:08.615Z,2.28
2022-10-23T12:38:44.082Z,2.33
2022-10-23T12:41:31.504Z,1.90
2022-10-23T12:44:00.604Z,2.28
2022-10-23T12:46:40.139Z,1.90
2022-10-23T12:49:26.310Z,1.90
2022-10-23T12:54:51.931Z,1.80
2022-10-23T13:01:12.328Z,2.10
2022-10-23T13:03:40.104Z,2.45
2022-10-23T13:06:25.606Z,1.63
2022-10-23T13:09:34.934Z,1.77
2022-10-23T13:12:41.436Z,2.13
2022-10-23T13:15:08.940Z,1.92
2022-10-23T13:20:39.659Z,2.22
2022-10-23T13:23:35.276Z,1.92
2022-10-23T13:26:06.775Z,1.80
2022-10-23T13:28:43.307Z,2.08
2022-10-23T13:34:26.797Z,1.92
2022-10-23T13:37:04.118Z,2.00
2022-10-23T13:39:37.242Z,1.88
2022-10-23T13:45:18.879Z,2.00
2022-10-23T13:47:46.465Z,2.05
2022-10-23T13:50:33.150Z,1.88
2022-10-23T13:53:06.275Z,1.80
2022-10-23T13:58:23.529Z,2.00
2022-10-23T14:01:09.843Z,1.92
2022-10-23T14:03:49.554Z,2.42
2022-10-23T14:06:18.786Z,2.13
2022-10-23T14:09:01.067Z,1.98
2022-10-23T14:12:10.689Z,2.45
2022-10-23T14:14:42.736Z,2.38
2022-10-23T14:17:22.327Z,2.70
2022-10-23T14:19:52.171Z,2.25
2022-10-23T14:22:22.356Z,2.20
2022-10-23T14:24:49.526Z,2.20
2022-10-23T14:27:19.679Z,2.05
2022-10-23T14:29:58.349Z,2.10
2022-10-23T14:32:25.451Z,2.00
2022-10-23T14:35:13.306Z,2.15
2022-10-23T14:38:01.971Z,2.08
2022-10-23T14:40:46.853Z,2.15
2022-10-23T14:46:30.110Z,2.30
2022-10-23T14:49:07.921Z,2.20
2022-10-23T14:52:10.683Z,2.28
2022-10-23T14:55:00.144Z,2.17
2022-10-23T14:57:28.103Z,2.30
2022-10-23T15:00:35.441Z,2.15
2022-10-23T15:03:13.238Z,2.22
2022-10-23T15:05:42.824Z,2.38
2022-10-23T15:11:37.700Z,2.95
2022-10-23T15:14:04.732Z,2.40
2022-10-23T15:16:32.122Z,2.67
2022-10-23T15:19:34.633Z,2.53
2022-10-23T15:22:15.833Z,2.60
2022-10-23T15:24:45.902Z,2.40
2022-10-23T15:27:24.617Z,2.55
2022-10-23T15:29:51.736Z,2.58
2022-10-23T15:32:21.859Z,2.55
2022-10-23T15:41:07.806Z,2.30
2022-10-23T15:44:07.646Z,3.08
2022-10-23T15:46:35.444Z,2.25
2022-10-23T15:49:19.969Z,2.50
2022-10-23T15:51:59.368Z,2.50
2022-10-23T15:54:29.295Z,2.38
2022-10-23T15:56:59.206Z,2.53
2022-10-23T15:59:41.572Z,2.70
2022-10-23T16:02:30.669Z,2.50
2022-10-23T16:05:00.367Z,2.30
2022-10-23T16:07:27.554Z,2.28
2022-10-23T16:10:05.528Z,2.42
2022-10-23T16:12:33.026Z,2.80
2022-10-23T16:15:08.044Z,2.53
2022-10-23T16:17:38.152Z,2.10
2022-10-23T16:20:32.520Z,1.88
2022-10-23T16:26:13.319Z,2.22
2022-10-23T16:28:40.647Z,2.10
2022-10-23T16:31:17.827Z,2.63
2022-10-23T16:34:31.918Z,2.33
2022-10-23T16:37:02.330Z,2.47
2022-10-23T16:39:39.679Z,2.40
2022-10-23T16:42:15.671Z,2.75
2022-10-23T16:44:45.887Z,2.70
2022-10-23T16:47:25.096Z,2.80
2022-10-23T16:53:06.570Z,2.95
2022-10-23T16:55:45.749Z,2.50
2022-10-23T16:58:18.876Z,2.78
2022-10-23T17:03:55.089Z,2.80
2022-10-23T17:06:39.261Z,2.53
2022-10-23T17:19:43.620Z,2.75
2022-10-23T17:22:28.843Z,2.95
2022-10-23T17:25:06.156Z,2.40
2022-10-23T17:31:14.863Z,2.70
2022-10-23T17:34:04.469Z,2.20
2022-10-23T17:37:01.266Z,2.53
2022-10-23T17:39:29.293Z,2.08
2022-10-23T17:45:30.628Z,2.45
2022-10-23T17:47:56.181Z,2.22
2022-10-23T17:54:01.318Z,2.22
2022-10-23T17:56:33.938Z,2.35
2022-10-23T18:01:31.246Z,2.10
2022-10-23T18:04:51.137Z,2.13
2022-10-23T18:07:26.609Z,2.15
2022-10-23T18:10:01.630Z,2.35
2022-10-23T18:15:35.464Z,2.33
2022-10-23T18:18:14.606Z,2.42
2022-10-23T18:20:43.305Z,2.80
2022-10-23T18:23:19.288Z,2.08
2022-10-23T18:25:46.499Z,2.47
2022-10-23T18:28:32.194Z,2.80
2022-10-23T18:31:29.458Z,2.40
2022-10-23T18:34:55.344Z,2.60
2022-10-23T18:37:51.033Z,2.53
2022-10-23T18:40:25.700Z,2.38
2022-10-23T18:42:57.578Z,2.60
2022-10-23T18:45:24.731Z,2.42
2022-10-23T18:48:03.957Z,2.40
2022-10-23T18:50:44.954Z,2.90
2022-10-23T18:56:59.790Z,2.28
2022-10-23T18:59:32.848Z,3.03
2022-10-23T19:02:02.204Z,2.38
2022-10-23T19:05:52.620Z,3.03
2022-10-23T19:07:21.573Z,2.67
2022-10-23T19:13:03.527Z,2.38
2022-10-23T19:15:38.743Z,2.63
2022-10-23T19:18:15.973Z,2.67
2022-10-23T19:20:47.463Z,2.80
2022-10-23T19:23:26.780Z,2.70
2022-10-23T19:26:06.943Z,2.70
2022-10-23T19:28:41.605Z,2.95
2022-10-23T19:31:10.404Z,2.88
2022-10-23T19:33:41.113Z,2.78
2022-10-23T19:36:13.847Z,3.25
2022-10-23T19:39:01.576Z,2.90
2022-10-23T19:41:38.239Z,2.70
2022-10-23T19:46:56.123Z,2.55
2022-10-23T19:49:50.646Z,2.50
2022-10-23T19:52:37.680Z,2.42
2022-10-23T19:55:16.371Z,2.97
2022-10-23T19:57:46.550Z,2.92
2022-10-23T20:00:19.718Z,2.60
2022-10-23T20:02:54.363Z,2.75
2022-10-23T20:05:58.318Z,3.22
2022-10-23T20:08:25.347Z,3.10
2022-10-23T20:11:02.847Z,3.00
2022-10-23T20:13:33.976Z,3.00
2022-10-23T20:16:02.280Z,2.70
2022-10-23T20:21:14.306Z,2.28
2022-10-23T20:23:45.838Z,2.15
2022-10-23T20:26:19.530Z,1.83
2022-10-23T20:34:51.980Z,2.00
2022-10-23T20:37:27.014Z,1.80
2022-10-23T20:42:57.526Z,1.25
2022-10-23T20:50:52.470Z,1.17
2022-10-23T20:53:22.368Z,1.33
2022-10-23T20:56:18.611Z,1.10
2022-10-23T20:58:49.392Z,0.93
2022-10-23T21:01:17.672Z,1.38
2022-10-23T21:03:49.500Z,1.50
2022-10-23T21:07:08.232Z,1.70
2022-10-23T21:09:41.774Z,1.20
2022-10-23T21:12:17.454Z,1.40
2022-10-23T21:14:44.457Z,1.00
2022-10-23T21:17:40.007Z,1.15
2022-10-23T21:20:17.003Z,1.17
2022-10-23T21:23:04.572Z,1.20
2022-10-23T21:25:33.614Z,0.98
2022-10-23T21:28:01.040Z,1.23
2022-10-23T21:33:34.194Z,0.82
2022-10-23T21:37:11.886Z,1.20
2022-10-23T21:39:06.514Z,1.15
2022-10-23T21:41:45.793Z,1.33
2022-10-23T21:44:20.389Z,1.20
2022-10-23T21:46:52.676Z,1.02
2022-10-23T21:49:23.303Z,1.27
2022-10-23T21:51:59.667Z,1.20
2022-10-23T21:54:32.108Z,1.10
2022-10-23T21:57:05.967Z,1.27
2022-10-23T22:00:25.896Z,0.80
2022-10-23T22:02:36.402Z,1.02
2022-10-23T22:05:03.706Z,1.00
2022-10-23T22:07:47.010Z,0.95
2022-10-23T22:10:19.553Z,1.20
2022-10-23T22:18:19.537Z,1.70
2022-10-23T22:20:48.300Z,1.08
2022-10-23T22:26:40.166Z,1.30
2022-10-23T22:29:13.737Z,1.77
2022-10-23T22:31:50.028Z,1.48
2022-10-23T22:34:47.912Z,1.60
2022-10-23T22:39:54.487Z,1.60
2022-10-23T22:42:30.831Z,1.40
2022-10-23T22:45:56.684Z,1.75
2022-10-23T22:48:30.096Z,1.77
2022-10-23T22:53:54.255Z,1.40
2022-10-23T22:56:53.320Z,1.70
2022-10-23T22:59:26.113Z,1.65
2022-10-23T23:04:47.882Z,1.42
2022-10-23T23:08:02.590Z,1.25
2022-10-23T23:10:19.816Z,1.75
2022-10-23T23:12:56.231Z,1.70
2022-10-23T23:15:29.644Z,1.45
2022-10-23T23:18:02.948Z,2.05
2022-10-23T23:20:30.022Z,1.77
2022-10-23T23:23:04.244Z,1.50
2022-10-23T23:25:43.975Z,2.05
2022-10-23T23:28:33.967Z,1.50
2022-10-23T23:31:16.160Z,1.60
2022-10-23T23:34:10.144Z,2.05
2022-10-23T23:36:58.833Z,1.58
2022-10-23T23:39:35.627Z,1.70
2022-10-23T23:42:13.155Z,1.92
2022-10-23T23:44:50.203Z,2.17
2022-10-23T23:47:34.936Z,2.22
2022-10-23T23:50:17.959Z,1.90
2022-10-23T23:53:06.740Z,2.53
2022-10-23T23:55:38.732Z,2.00
